Time;durP1;ratioP1;P1;durP2;ratioP2;P2;SDS_P1;SDS_P2;PMS_P1;PMS_P2;Temp;Humidity;BMP_temperature;BMP_pressure;BME280_temperature;BME280_humidity;BME280_pressure;Samples;Min_cycle;Max_cycle;Signal;HPM_P1;HPM_P2
2023/04/20 00:00:57;;;;;;;41.22;24.90;;;;;;;15.23;51.31;93227.31;4898056;29;20085;-90
2023/04/20 00:03:23;;;;;;;39.53;26.55;;;;;;;15.20;51.41;93223.59;4897770;29;20036;-88
2023/04/20 00:05:48;;;;;;;43.10;26.15;;;;;;;15.21;51.35;93225.09;4897701;29;20528;-87
2023/04/20 00:08:16;;;;;;;37.50;25.13;;;;;;;15.22;51.14;93212.22;4867317;29;20111;-92
2023/04/20 00:10:43;;;;;;;40.55;25.80;;;;;;;15.22;51.40;93223.13;4885126;29;20040;-87
2023/04/20 00:13:09;;;;;;;37.47;24.52;;;;;;;15.23;51.24;93213.72;4916045;29;20051;-87
2023/04/20 00:15:34;;;;;;;37.70;25.58;;;;;;;15.29;51.28;93203.56;4916346;29;20048;-90
2023/04/20 00:18:01;;;;;;;38.35;25.50;;;;;;;15.23;51.43;93206.28;4901386;29;20534;-92
2023/04/20 00:20:27;;;;;;;41.63;26.02;;;;;;;15.23;51.16;93198.13;4932147;29;20063;-96
2023/04/20 00:22:52;;;;;;;36.70;24.63;;;;;;;15.22;51.07;93204.06;4901401;29;20131;-88
2023/04/20 00:25:19;;;;;;;36.38;24.67;;;;;;;15.20;51.28;93201.81;4916069;29;20031;-87
2023/04/20 00:27:44;;;;;;;40.60;24.73;;;;;;;15.21;51.28;93202.56;4916539;29;20044;-88
2023/04/20 00:30:10;;;;;;;34.80;23.80;;;;;;;15.29;50.82;93200.84;4915825;29;20088;-93
2023/04/20 00:32:36;;;;;;;37.58;23.58;;;;;;;15.25;51.31;93194.91;4917941;29;20032;-91
2023/04/20 00:35:01;;;;;;;31.23;22.70;;;;;;;15.23;51.32;93191.94;4916582;29;20494;-93
2023/04/20 00:37:27;;;;;;;36.65;25.00;;;;;;;15.21;51.38;93197.88;4890132;29;20788;-93
2023/04/20 00:39:53;;;;;;;37.45;23.52;;;;;;;15.20;51.04;93182.75;4886983;29;20047;-91
2023/04/20 00:42:18;;;;;;;35.80;23.48;;;;;;;15.21;51.18;93191.69;4896909;29;20043;-87
2023/04/20 00:44:44;;;;;;;37.55;23.25;;;;;;;15.21;50.96;93200.59;4883712;29;20051;-93
2023/04/20 00:47:09;;;;;;;37.25;24.83;;;;;;;15.24;51.39;93198.84;4896898;29;20618;-89
2023/04/20 00:49:35;;;;;;;33.95;22.02;;;;;;;15.21;50.81;93197.13;4914112;29;20041;-89
2023/04/20 00:52:00;;;;;;;32.67;21.98;;;;;;;15.21;51.14;93184.25;4864015;29;20048;-88
2023/04/20 00:54:26;;;;;;;33.72;22.50;;;;;;;15.19;51.38;93180.53;4896795;29;20091;-86
2023/04/20 00:56:52;;;;;;;32.63;22.73;;;;;;;15.19;51.27;93181.28;4893916;29;20496;-90
2023/04/20 00:59:17;;;;;;;31.48;21.52;;;;;;;15.21;51.29;93184.25;4878332;29;20040;-88
2023/04/20 01:01:43;;;;;;;33.63;22.63;;;;;;;15.19;51.34;93185.97;4897430;29;20040;-94
2023/04/20 01:04:08;;;;;;;30.00;22.48;;;;;;;15.23;51.29;93187.22;4884905;29;20347;-93
2023/04/20 01:06:33;;;;;;;34.42;22.05;;;;;;;15.21;51.36;93180.78;4915834;29;20051;-90
2023/04/20 01:08:59;;;;;;;29.27;21.48;;;;;;;15.20;51.13;93182.03;4900166;29;20036;-96
2023/04/20 01:11:24;;;;;;;34.75;22.95;;;;;;;15.18;51.33;93182.50;4887599;29;20047;-91
2023/04/20 01:13:50;;;;;;;30.45;21.58;;;;;;;15.20;51.09;93180.03;4911151;29;20043;-92
2023/04/20 01:16:15;;;;;;;33.58;22.25;;;;;;;15.20;51.32;93173.84;4903114;29;20100;-90
2023/04/20 01:18:45;;;;;;;30.92;21.83;;;;;;;15.18;51.45;93170.88;4912631;29;20048;-90
2023/04/20 01:21:11;;;;;;;30.80;21.15;;;;;;;15.22;51.01;93169.41;4897133;29;20039;-92
2023/04/20 01:23:37;;;;;;;31.42;21.58;;;;;;;15.23;51.19;93168.16;4897415;29;20533;-96
2023/04/20 01:26:07;;;;;;;29.92;20.00;;;;;;;15.26;50.88;93167.19;4896439;29;20052;-93
2023/04/20 01:28:32;;;;;;;30.33;21.08;;;;;;;15.21;51.31;93167.91;4897160;29;20047;-93
2023/04/20 01:30:57;;;;;;;31.70;20.95;;;;;;;15.19;51.20;93159.50;4913240;29;20059;-94
2023/04/20 01:33:23;;;;;;;30.05;21.13;;;;;;;15.20;51.38;93160.97;4906099;29;20083;-96
2023/04/20 01:35:48;;;;;;;30.77;21.23;;;;;;;15.20;50.93;93152.06;4908091;29;20044;-87
2023/04/20 01:38:21;;;;;;;26.98;18.95;;;;;;;15.27;50.75;93154.31;4900071;29;20561;-92
2023/04/20 01:40:46;;;;;;;29.55;19.30;;;;;;;15.30;50.46;93147.88;4903451;29;20051;-89
2023/04/20 01:43:12;;;;;;;29.55;18.45;;;;;;;15.35;50.50;93149.84;4890826;29;20534;-93
2023/04/20 01:45:37;;;;;;;30.13;20.10;;;;;;;15.25;50.89;93151.34;4911091;29;20062;-93
2023/04/20 01:48:03;;;;;;;29.77;20.50;;;;;;;15.20;50.85;93152.06;4914494;29;20039;-86
2023/04/20 01:50:28;;;;;;;27.17;18.75;;;;;;;15.22;50.84;93146.88;4899062;29;20040;-92
2023/04/20 01:52:53;;;;;;;31.08;19.13;;;;;;;15.32;50.20;93151.59;4915757;29;20091;-88
2023/04/20 01:55:20;;;;;;;32.08;19.63;;;;;;;15.27;50.80;93148.84;4888374;29;20044;-89
2023/04/20 01:57:45;;;;;;;27.35;19.25;;;;;;;15.22;50.98;93150.34;4897635;29;20055;-90
2023/04/20 02:00:11;;;;;;;30.10;19.65;;;;;;;15.18;50.67;93147.13;4899786;29;20297;-92
2023/04/20 02:02:37;;;;;;;28.10;18.67;;;;;;;15.23;50.62;93135.50;4899201;29;20566;-94
2023/04/20 02:05:03;;;;;;;27.42;19.20;;;;;;;15.16;50.75;93135.97;4908070;29;20036;-89
2023/04/20 02:07:29;;;;;;;24.27;18.20;;;;;;;15.17;50.66;93136.72;4899000;29;20040;-89
2023/04/20 02:09:54;;;;;;;27.13;18.02;;;;;;;15.22;50.67;93149.59;4898997;29;20040;-89
2023/04/20 02:12:19;;;;;;;29.65;20.02;;;;;;;15.21;50.80;93139.94;4898392;29;20075;-88
2023/04/20 02:14:45;;;;;;;27.00;18.27;;;;;;;15.18;50.90;93143.66;4897285;29;20044;-90
2023/04/20 02:17:10;;;;;;;27.88;17.48;;;;;;;15.21;50.88;93142.66;4930077;29;20052;-94
2023/04/20 02:19:36;;;;;;;27.73;18.38;;;;;;;15.30;50.27;93140.44;4899443;29;20129;-90
2023/04/20 02:22:01;;;;;;;26.60;18.50;;;;;;;15.25;50.64;93145.88;4913064;29;20039;-87
2023/04/20 02:24:27;;;;;;;28.02;19.23;;;;;;;15.23;50.76;93137.47;4916194;29;20111;-90
2023/04/20 02:26:52;;;;;;;26.27;18.33;;;;;;;15.26;50.42;93141.94;4915955;29;20047;-90
2023/04/20 02:29:17;;;;;;;22.65;16.52;;;;;;;15.28;50.24;93148.38;4900121;29;20043;-92
2023/04/20 02:31:43;;;;;;;23.92;17.08;;;;;;;15.27;50.48;93149.59;4914773;29;20114;-91
2023/04/20 02:34:09;;;;;;;26.90;17.40;;;;;;;15.23;50.75;93138.22;4914612;29;20106;-90
2023/04/20 02:36:35;;;;;;;28.60;17.95;;;;;;;15.21;50.69;93134.50;4914950;29;20050;-90
2023/04/20 02:39:00;;;;;;;21.67;16.05;;;;;;;15.27;50.53;93137.97;4907068;29;20043;-92
2023/04/20 02:41:25;;;;;;;25.50;18.10;;;;;;;15.18;50.79;93136.22;4914757;29;20462;-89
2023/04/20 02:43:51;;;;;;;28.83;17.95;;;;;;;15.23;50.69;93138.22;4915638;29;20534;-94
2023/04/20 02:46:16;;;;;;;25.80;17.50;;;;;;;15.22;50.57;93130.53;4913344;29;20043;-90
2023/04/20 02:48:42;;;;;;;26.60;18.27;;;;;;;15.16;50.97;93133.25;4899325;29;20036;-92
2023/04/20 02:51:08;;;;;;;22.88;16.52;;;;;;;15.20;50.49;93125.59;4930658;29;20043;-91
2023/04/20 02:53:34;;;;;;;27.48;18.02;;;;;;;15.16;50.69;93127.81;4914909;29;20043;-95
2023/04/20 02:55:59;;;;;;;26.63;16.33;;;;;;;15.22;50.30;93131.28;4898335;29;20035;-92
2023/04/20 02:58:25;;;;;;;24.40;16.92;;;;;;;15.18;50.61;93130.03;4899096;29;20050;-93
2023/04/20 03:00:50;;;;;;;20.83;16.05;;;;;;;15.25;50.43;93124.09;4914369;29;20044;-94
2023/04/20 03:03:16;;;;;;;22.60;16.95;;;;;;;15.21;50.35;93129.78;4913602;29;20051;-87
2023/04/20 03:05:42;;;;;;;25.58;18.15;;;;;;;15.32;50.05;93124.34;4930125;29;20507;-90
2023/04/20 03:08:07;;;;;;;20.85;15.43;;;;;;;15.31;50.11;93125.59;4898167;29;20054;-91
2023/04/20 03:10:33;;;;;;;21.45;15.30;;;;;;;15.26;50.24;93120.88;4913970;29;20048;-88
2023/04/20 03:12:58;;;;;;;23.35;15.57;;;;;;;15.29;49.96;93119.91;4898289;29;20538;-86
2023/04/20 03:15:24;;;;;;;23.80;17.35;;;;;;;15.19;50.51;93107.75;4901530;29;20040;-90
2023/04/20 03:17:49;;;;;;;23.55;15.70;;;;;;;15.25;50.21;93108.50;4917283;29;20047;-94
2023/04/20 03:20:15;;;;;;;22.17;14.77;;;;;;;15.28;49.86;93095.88;4919399;29;20040;-94
2023/04/20 03:22:40;;;;;;;23.65;15.75;;;;;;;15.28;49.82;93099.34;4903712;29;20074;-91
2023/04/20 03:25:06;;;;;;;23.50;16.58;;;;;;;15.21;50.55;93097.13;4898336;29;20051;-94
2023/04/20 03:27:32;;;;;;;21.10;15.85;;;;;;;15.17;50.62;93098.59;4899142;29;20044;-92
2023/04/20 03:29:57;;;;;;;24.70;15.60;;;;;;;15.24;49.86;93092.66;4903150;29;20050;-93
2023/04/20 03:32:22;;;;;;;21.35;14.65;;;;;;;15.25;50.07;93092.16;4896044;29;20048;-90
2023/04/20 03:34:49;;;;;;;22.85;14.88;;;;;;;15.34;49.49;93093.91;4897879;29;20052;-88
2023/04/20 03:37:17;;;;;;;23.77;16.20;;;;;;;15.22;50.29;93095.88;4881682;29;20131;-93
2023/04/20 03:39:49;;;;;;;125.70;92.50;;;;;;;15.20;50.66;93103.06;4908593;29;20115;-89
2023/04/20 03:42:14;;;;;;;25.20;17.42;;;;;;;15.20;50.19;93082.03;4892193;29;20605;-90
2023/04/20 03:44:40;;;;;;;24.38;16.17;;;;;;;15.24;50.19;93092.66;4905761;29;20040;-88
2023/04/20 03:47:05;;;;;;;24.45;15.88;;;;;;;15.22;50.09;93085.00;4895446;29;20044;-94
2023/04/20 03:49:31;;;;;;;29.23;15.82;;;;;;;15.30;50.09;93083.25;4883061;29;20040;-90
2023/04/20 03:51:56;;;;;;;23.98;17.35;;;;;;;15.32;49.82;93085.47;4886844;29;20056;-91
2023/04/20 03:54:22;;;;;;;33.10;19.08;;;;;;;15.31;50.01;93082.00;4898190;29;20083;-90
2023/04/20 03:56:48;;;;;;;29.67;18.10;;;;;;;15.29;50.04;93081.03;4880046;29;20045;-90
2023/04/20 03:59:15;;;;;;;36.42;17.33;;;;;;;15.22;48.84;93081.53;4885877;29;20444;-93
2023/04/20 04:01:42;;;;;;;32.00;16.17;;;;;;;14.99;46.48;93089.72;4901917;29;20044;-89
2023/04/20 04:04:10;;;;;;;92.03;25.83;;;;;;;15.01;45.82;93084.53;4911446;29;20052;-90
2023/04/20 04:06:36;;;;;;;92.60;27.27;;;;;;;15.03;45.85;93084.03;4883678;29;20048;-90
2023/04/20 04:09:02;;;;;;;116.13;29.80;;;;;;;15.02;46.13;93082.53;4881723;29;20054;-90
2023/04/20 04:11:28;;;;;;;129.15;36.75;;;;;;;15.07;46.83;93077.09;4875607;29;20151;-93
2023/04/20 04:13:56;;;;;;;80.57;31.58;;;;;;;14.96;46.27;93070.91;4904862;29;20029;-94
2023/04/20 04:16:21;;;;;;;109.40;40.08;;;;;;;14.85;45.50;93077.13;4878472;29;20032;-93
2023/04/20 04:18:48;;;;;;;136.30;48.65;;;;;;;14.71;45.19;93081.59;4900507;29;20048;-94
2023/04/20 04:21:13;;;;;;;82.95;30.27;;;;;;;14.68;44.69;93077.13;4909631;29;20036;-92
2023/04/20 04:23:41;;;;;;;122.25;44.78;;;;;;;14.60;45.55;93073.41;4906344;29;20063;-93
2023/04/20 04:26:08;;;;;;;101.97;34.08;;;;;;;14.62;45.20;93076.38;4900752;29;20044;-94
2023/04/20 04:28:35;;;;;;;127.32;37.05;;;;;;;14.63;45.35;93086.03;4910421;29;20040;-94
2023/04/20 04:31:04;;;;;;;212.80;47.80;;;;;;;14.70;45.47;93071.94;4908301;29;20165;-94
2023/04/20 04:33:35;;;;;;;478.60;88.47;;;;;;;14.73;47.36;93072.91;4903060;29;20458;-93
2023/04/20 04:36:01;;;;;;;286.08;62.13;;;;;;;14.84;47.11;93080.34;4899534;29;20514;-94
2023/04/20 04:38:26;;;;;;;224.05;56.85;;;;;;;14.96;47.86;93081.78;4901928;29;20519;-94
2023/04/20 04:40:52;;;;;;;181.82;50.50;;;;;;;14.89;48.10;93083.06;4899274;29;20130;-94
2023/04/20 04:43:18;;;;;;;150.05;44.28;;;;;;;14.87;48.28;93084.78;4897463;29;20117;-93
2023/04/20 04:45:44;;;;;;;180.00;51.05;;;;;;;14.87;49.41;93090.97;4909704;29;20047;-93
2023/04/20 04:48:12;;;;;;;179.05;45.25;;;;;;;14.91;49.25;93077.88;4894078;29;20040;-95
2023/04/20 04:50:38;;;;;;;202.10;53.72;;;;;;;14.91;49.20;93091.47;4894213;29;20491;-94
2023/04/20 04:53:03;;;;;;;145.85;44.25;;;;;;;14.90;48.77;93090.00;4903280;29;20123;-94
2023/04/20 04:55:29;;;;;;;139.70;41.42;;;;;;;14.93;48.38;93083.56;4905848;29;20051;-94
2023/04/20 04:58:19;;;;;;;129.88;41.67;;;;;;;14.96;48.91;93081.78;4906316;29;20043;-94
2023/04/20 05:01:00;;;;;;;122.90;38.17;;;;;;;15.05;48.60;93089.72;4941047;29;20717;-94
2023/04/20 05:04:00;;;;;;;133.77;43.95;;;;;;;15.08;48.58;93096.91;4870710;29;20907;-94
2023/04/20 05:06:26;;;;;;;238.73;52.27;;;;;;;15.02;48.38;93096.91;4912349;29;20070;-95
2023/04/20 05:09:18;;;;;;;138.52;46.15;;;;;;;15.05;48.71;93095.16;4905613;29;20302;-94
2023/04/20 05:11:48;;;;;;;102.97;41.70;;;;;;;15.12;48.46;93091.22;4922663;29;20075;-95
2023/04/20 05:14:13;;;;;;;116.85;44.30;;;;;;;15.05;48.29;93085.03;4914170;29;20063;-90
2023/04/20 05:16:59;;;;;;;126.50;45.50;;;;;;;15.06;48.25;93083.03;4924034;29;20043;-92
2023/04/20 05:19:24;;;;;;;122.15;45.42;;;;;;;15.09;48.69;93092.94;4898943;29;20107;-90
2023/04/20 05:21:51;;;;;;;122.63;47.55;;;;;;;15.18;48.34;93081.03;4918913;29;20064;-92
2023/04/20 05:24:18;;;;;;;151.55;54.70;;;;;;;15.14;48.01;93086.75;4899970;29;20066;-89
2023/04/20 05:26:45;;;;;;;133.85;52.33;;;;;;;15.21;48.25;93083.50;4904839;29;20194;-93
2023/04/20 05:29:10;;;;;;;122.35;53.25;;;;;;;15.12;48.18;93089.22;4917406;29;20044;-92
2023/04/20 05:31:37;;;;;;;149.02;61.83;;;;;;;15.23;48.33;93091.19;4918137;29;20043;-90
2023/04/20 05:34:02;;;;;;;170.48;65.30;;;;;;;15.15;48.08;93098.38;4884583;29;20048;-92
2023/04/20 05:36:28;;;;;;;167.20;66.40;;;;;;;15.20;48.31;93084.00;4893005;29;20303;-92
2023/04/20 05:38:54;;;;;;;190.95;76.50;;;;;;;15.21;48.53;93088.22;4894033;29;20076;-90
2023/04/20 05:41:25;;;;;;;163.77;68.45;;;;;;;15.27;48.02;93091.66;4915576;29;20044;-92
2023/04/20 05:43:51;;;;;;;;;;;;;;;15.29;48.01;93086.47;4903464;29;20044;-92
2023/04/20 05:46:18;;;;;;;242.20;108.95;;;;;;;15.25;48.06;93091.44;4932980;29;20484;-90
2023/04/20 05:48:43;;;;;;;206.98;93.13;;;;;;;15.25;48.21;93086.72;4897674;29;20040;-91
2023/04/20 05:51:09;;;;;;;241.95;110.68;;;;;;;15.26;48.23;93092.91;4892844;29;20043;-94
2023/04/20 05:53:34;;;;;;;241.35;117.05;;;;;;;15.26;48.01;93084.75;4892420;29;20051;-90
2023/04/20 05:56:00;;;;;;;294.73;136.85;;;;;;;15.31;48.12;93084.75;4897480;29;20043;-91
2023/04/20 05:58:26;;;;;;;264.00;128.20;;;;;;;15.36;48.30;93088.69;4913182;29;20048;-93
2023/04/20 06:00:52;;;;;;;284.95;128.65;;;;;;;15.32;48.09;93082.75;4881783;29;20048;-91
2023/04/20 06:03:19;;;;;;;288.00;138.98;;;;;;;15.30;48.33;93083.25;4884822;29;20098;-92
2023/04/20 06:05:44;;;;;;;274.80;130.90;;;;;;;15.36;47.83;93080.53;4914374;29;20036;-91
2023/04/20 06:08:10;;;;;;;278.50;129.23;;;;;;;15.41;48.12;93082.47;4914469;29;20055;-90
2023/04/20 06:10:35;;;;;;;247.27;118.80;;;;;;;15.41;47.76;93098.81;4903701;29;20419;-91
2023/04/20 06:13:01;;;;;;;277.67;137.60;;;;;;;15.38;48.00;93092.38;4899264;29;20051;-90
2023/04/20 06:15:28;;;;;;;241.88;117.82;;;;;;;15.42;47.88;93098.31;4899701;29;20099;-92
2023/04/20 06:17:53;;;;;;;244.05;116.00;;;;;;;15.45;48.16;93093.84;4915360;29;20048;-90
2023/04/20 06:20:19;;;;;;;275.98;126.28;;;;;;;15.44;48.51;93082.22;4915045;29;20130;-92
2023/04/20 06:22:44;;;;;;;244.57;113.63;;;;;;;15.50;47.99;93092.38;4902337;29;20059;-91
2023/04/20 06:25:10;;;;;;;231.93;115.15;;;;;;;15.52;48.24;93098.06;4915301;29;20440;-94
2023/04/20 06:27:36;;;;;;;220.55;110.22;;;;;;;15.51;48.53;93096.56;4901278;29;20147;-90
2023/04/20 06:30:01;;;;;;;238.35;113.63;;;;;;;15.44;48.49;93103.28;4902896;29;20036;-90
2023/04/20 06:32:27;;;;;;;244.27;107.55;;;;;;;15.44;48.26;93106.72;4903179;29;20082;-92
2023/04/20 06:34:52;;;;;;;227.52;106.63;;;;;;;15.48;48.16;93111.19;4903409;29;20044;-91
2023/04/20 06:37:19;;;;;;;256.60;115.93;;;;;;;15.42;48.23;93114.66;4908158;29;20054;-91
2023/04/20 06:39:45;;;;;;;250.23;108.70;;;;;;;15.51;48.21;93107.47;4932061;29;20110;-91
2023/04/20 06:42:13;;;;;;;219.30;105.07;;;;;;;15.49;48.26;93097.06;4922744;28;20035;-94
2023/04/20 06:44:40;;;;;;;228.05;107.07;;;;;;;15.47;48.10;93098.81;4903202;29;20039;-91
2023/04/20 06:47:13;;;;;;;227.18;110.00;;;;;;;15.52;48.12;93106.97;4919369;29;20051;-94
2023/04/20 06:49:40;;;;;;;228.60;107.97;;;;;;;15.50;47.83;93109.47;4902105;29;20490;-90
2023/04/20 06:52:05;;;;;;;253.55;114.60;;;;;;;15.50;48.11;93104.00;4933030;29;20043;-90
2023/04/20 06:54:31;;;;;;;226.38;107.82;;;;;;;15.45;48.31;93104.75;4883103;29;20104;-90
2023/04/20 06:56:58;;;;;;;214.85;106.20;;;;;;;15.52;47.91;93103.50;4910503;29;20056;-91
2023/04/20 06:59:23;;;;;;;212.30;103.45;;;;;;;15.46;48.41;93100.06;4937154;23;20044;-88
2023/04/20 07:01:49;;;;;;;229.98;108.88;;;;;;;15.40;48.41;93100.78;4920973;29;20098;-94
2023/04/20 07:04:14;;;;;;;201.55;95.45;;;;;;;15.47;48.41;93107.72;4921440;28;20054;-90
2023/04/20 07:06:40;;;;;;;197.85;93.05;;;;;;;15.42;48.18;93105.75;4909793;29;20086;-90
2023/04/20 07:09:07;;;;;;;212.65;85.30;;;;;;;15.36;47.83;93102.31;4912872;28;20134;-87
2023/04/20 07:11:32;;;;;;;179.07;80.25;;;;;;;15.37;48.08;93103.81;4929928;29;20044;-88
2023/04/20 07:13:58;;;;;;;173.07;72.97;;;;;;;15.46;47.77;93098.06;4908662;29;20744;-90
2023/04/20 07:16:24;;;;;;;195.65;77.15;;;;;;;15.39;47.78;93102.03;4909603;29;20040;-90
2023/04/20 07:18:50;;;;;;;166.00;69.75;;;;;;;15.40;47.87;93091.88;4954599;28;20545;-91
2023/04/20 07:21:15;;;;;;;189.73;78.63;;;;;;;15.38;48.00;93103.28;4894837;28;20115;-92
2023/04/20 07:23:41;;;;;;;184.40;80.18;;;;;;;15.44;47.79;93092.38;4910579;29;20115;-90
2023/04/20 07:26:07;;;;;;;223.48;79.78;;;;;;;15.42;47.84;93103.03;4912915;29;20055;-91
2023/04/20 07:28:33;;;;;;;221.43;86.63;;;;;;;15.32;47.75;93097.13;4914324;29;20044;-91
2023/04/20 07:30:59;;;;;;;218.10;87.00;;;;;;;15.33;48.03;93103.31;4915960;29;20040;-91
2023/04/20 07:33:24;;;;;;;186.93;79.07;;;;;;;15.33;48.05;93101.31;4932459;28;20036;-91
2023/04/20 07:35:50;;;;;;;162.75;66.53;;;;;;;15.26;47.82;93103.81;4909345;29;20044;-91
2023/04/20 07:38:16;;;;;;;160.48;65.05;;;;;;;15.36;47.62;93100.34;4911496;28;20040;-90
2023/04/20 07:40:41;;;;;;;202.02;72.97;;;;;;;15.40;47.82;93098.06;4945561;28;20041;-91
2023/04/20 07:43:07;;;;;;;173.18;71.90;;;;;;;15.43;47.20;93091.63;4909916;29;20051;-91
2023/04/20 07:45:32;;;;;;;179.48;68.65;;;;;;;15.44;47.71;93093.13;4899265;29;20041;-93
2023/04/20 07:48:01;;;;;;;228.70;85.45;;;;;;;15.30;47.44;93094.16;4910486;29;20055;-91
2023/04/20 07:50:26;;;;;;;186.43;74.18;;;;;;;15.29;47.36;93083.75;4916290;29;20050;-93
2023/04/20 07:52:53;;;;;;;218.55;86.82;;;;;;;15.31;47.84;93090.19;4929063;29;20043;-93
2023/04/20 07:55:20;;;;;;;190.07;76.85;;;;;;;15.38;47.57;93089.66;4939675;28;20043;-95
2023/04/20 07:57:45;;;;;;;212.75;88.38;;;;;;;15.39;48.06;93085.69;4925742;29;20091;-93
2023/04/20 08:00:14;;;;;;;234.73;79.97;;;;;;;15.41;48.19;93077.78;4907994;28;20036;-93
2023/04/20 08:02:41;;;;;;;225.35;73.25;;;;;;;15.46;47.70;93087.16;4926535;28;20107;-93
2023/04/20 08:05:10;;;;;;;226.88;87.85;;;;;;;15.48;48.21;93086.69;4906313;28;20569;-93
2023/04/20 08:07:36;;;;;;;223.25;91.57;;;;;;;15.55;48.19;93089.63;4924252;29;20043;-93
2023/04/20 08:10:01;;;;;;;191.25;92.32;;;;;;;15.42;49.12;93087.41;4913579;28;20054;-93
2023/04/20 08:12:27;;;;;;;203.90;96.10;;;;;;;15.41;48.86;93085.94;4902282;29;20051;-90
2023/04/20 08:14:58;;;;;;;223.75;98.50;;;;;;;15.53;49.18;93092.13;4900670;29;20044;-91
2023/04/20 08:17:25;;;;;;;212.65;92.43;;;;;;;15.52;49.07;93085.19;4944383;28;20044;-91
2023/04/20 08:19:51;;;;;;;240.40;98.95;;;;;;;15.44;49.49;93084.19;4926814;29;20134;-92
2023/04/20 08:22:32;;;;;;;204.07;83.45;;;;;;;15.38;49.31;93086.94;4938775;28;20067;-94
2023/04/20 08:24:57;;;;;;;195.57;71.82;;;;;;;15.44;49.07;93082.22;4935027;29;20047;-91
2023/04/20 08:27:23;;;;;;;232.27;83.30;;;;;;;15.42;48.83;93075.78;4922960;28;20410;-92
2023/04/20 08:29:49;;;;;;;220.38;79.53;;;;;;;15.46;48.58;93070.09;4917904;29;20666;-93
2023/04/20 08:32:16;;;;;;;253.13;92.05;;;;;;;15.40;48.83;93078.25;4919202;28;20040;-93
2023/04/20 08:34:41;;;;;;;235.90;82.82;;;;;;;15.49;48.96;93064.38;4928524;29;20410;-92
2023/04/20 08:37:07;;;;;;;207.00;77.05;;;;;;;15.54;48.46;93062.91;4903652;28;20102;-94
2023/04/20 08:39:33;;;;;;;213.85;78.45;;;;;;;15.55;48.79;93064.38;4921236;29;20083;-93
2023/04/20 08:41:59;;;;;;;191.90;75.03;;;;;;;15.66;48.37;93059.66;4930964;29;20032;-90
2023/04/20 08:44:24;;;;;;;191.02;78.70;;;;;;;15.57;48.91;93059.94;4915327;29;20044;-92
2023/04/20 08:46:50;;;;;;;181.07;78.38;;;;;;;15.63;49.00;93057.91;4898586;29;20048;-91
2023/04/20 08:49:17;;;;;;;198.73;74.85;;;;;;;15.64;48.70;93061.38;4924263;28;20039;-91
2023/04/20 08:51:43;;;;;;;227.02;79.22;;;;;;;15.62;48.74;93072.03;4900819;29;20054;-89
2023/04/20 08:54:09;;;;;;;119.70;49.50;;;;;;;15.37;48.27;93060.94;4900550;29;20047;-90
2023/04/20 08:56:40;;;;;;;137.80;53.53;;;;;;;15.39;48.48;93055.00;4930019;29;20139;-91
2023/04/20 08:59:08;;;;;;;142.15;46.92;;;;;;;15.26;48.13;93057.50;4915114;28;20123;-91
2023/04/20 09:01:34;;;;;;;119.25;37.83;;;;;;;15.22;48.33;93060.47;4921047;29;20653;-90
2023/04/20 09:04:00;;;;;;;109.95;35.63;;;;;;;15.19;47.77;93066.19;4939347;28;20155;-91
2023/04/20 09:06:25;;;;;;;143.63;43.55;;;;;;;15.11;48.09;93067.94;4930912;28;20040;-92
2023/04/20 09:08:51;;;;;;;110.35;38.72;;;;;;;14.98;47.89;93063.00;4909462;29;20032;-91
2023/04/20 09:11:22;;;;;;;109.93;38.30;;;;;;;14.96;48.29;93058.03;4911488;28;20043;-92
2023/04/20 09:13:58;;;;;;;117.10;45.80;;;;;;;14.94;48.54;93065.97;4916363;29;20055;-93
2023/04/20 09:16:24;;;;;;;92.45;39.35;;;;;;;14.89;48.53;93061.28;4900295;29;20044;-90
2023/04/20 09:18:51;;;;;;;115.72;40.88;;;;;;;14.93;48.76;93061.03;4919471;29;20101;-91
2023/04/20 09:21:17;;;;;;;102.20;37.20;;;;;;;14.95;48.55;93055.81;4915625;29;20052;-92
2023/04/20 09:23:42;;;;;;;116.10;34.58;;;;;;;14.91;49.21;93058.06;4938159;29;20054;-90
2023/04/20 09:26:16;;;;;;;101.15;34.50;;;;;;;14.90;49.33;93048.41;4950710;28;20058;-90
2023/04/20 09:28:42;;;;;;;89.07;32.60;;;;;;;14.90;49.45;93043.72;4932064;29;20054;-92
2023/04/20 09:31:18;;;;;;;101.88;31.98;;;;;;;14.95;49.37;93051.13;4915979;29;20048;-89
2023/04/20 09:33:43;;;;;;;110.47;36.25;;;;;;;14.90;49.87;93057.31;4928408;28;20586;-90
2023/04/20 09:36:09;;;;;;;108.13;39.58;;;;;;;14.94;49.79;93040.75;4911419;29;20058;-88
2023/04/20 09:38:35;;;;;;;126.50;41.65;;;;;;;15.08;49.54;93045.91;4932014;29;20685;-88
2023/04/20 09:41:01;;;;;;;166.20;55.67;;;;;;;15.03;49.58;93037.75;4915463;29;20036;-90
2023/04/20 09:43:27;;;;;;;164.50;63.45;;;;;;;15.17;49.28;93050.34;4917839;28;20050;-92
2023/04/20 09:45:53;;;;;;;169.02;63.08;;;;;;;15.17;49.67;93044.16;4934581;29;20062;-90
2023/04/20 09:48:19;;;;;;;156.88;68.70;;;;;;;15.26;49.58;93054.78;4945430;28;20078;-91
2023/04/20 09:50:45;;;;;;;184.43;72.28;;;;;;;15.17;48.89;93041.44;4933136;29;20126;-90
2023/04/20 09:53:10;;;;;;;168.23;70.28;;;;;;;15.18;49.21;93037.47;4933677;28;20032;-91
2023/04/20 09:55:36;;;;;;;155.57;63.15;;;;;;;15.30;49.24;93045.13;4914328;29;20384;-90
2023/04/20 09:58:03;;;;;;;172.70;70.07;;;;;;;15.30;49.23;93036.97;4913465;29;20052;-90
2023/04/20 10:00:29;;;;;;;244.10;74.10;;;;;;;15.31;48.71;93043.88;4911168;29;20522;-90
2023/04/20 10:02:54;;;;;;;220.05;73.82;;;;;;;15.32;48.73;93039.94;4895985;29;20534;-91
2023/04/20 10:05:31;;;;;;;172.68;65.72;;;;;;;15.40;49.24;93027.25;4911958;28;20072;-90
2023/04/20 10:08:00;;;;;;;153.40;67.85;;;;;;;15.47;49.19;93033.44;4914617;29;20040;-90
2023/04/20 10:10:26;;;;;;;145.65;63.60;;;;;;;15.45;49.51;93033.94;4902669;28;20032;-90
2023/04/20 10:12:55;;;;;;;153.30;68.72;;;;;;;15.42;48.89;93029.47;4922096;28;20035;-90
2023/04/20 10:15:22;;;;;;;108.45;52.63;;;;;;;15.25;48.77;93043.16;4913740;28;20054;-91
2023/04/20 10:17:48;;;;;;;109.60;48.42;;;;;;;15.31;48.87;93033.00;4913879;29;20048;-89
2023/04/20 10:20:22;;;;;;;278.25;54.75;;;;;;;15.34;48.55;93028.53;4909557;29;20120;-90
2023/04/20 10:22:49;;;;;;;155.02;42.65;;;;;;;15.16;48.85;93031.78;4909142;29;20534;-89
2023/04/20 10:25:17;;;;;;;146.70;38.88;;;;;;;15.16;48.76;93026.34;4928513;28;20048;-89
2023/04/20 10:28:05;;;;;;;122.75;33.92;;;;;;;15.19;49.08;93026.09;4894742;29;20423;-91
2023/04/20 10:30:31;;;;;;;97.63;33.47;;;;;;;15.26;49.38;93033.75;4943307;28;20498;-91
2023/04/20 10:33:08;;;;;;;123.43;32.92;;;;;;;15.31;49.01;93026.81;4931942;29;20039;-91
2023/04/20 10:35:45;;;;;;;105.40;34.38;;;;;;;15.33;49.10;93019.63;4929517;29;20630;-90
2023/04/20 10:38:11;;;;;;;105.82;34.40;;;;;;;15.32;49.39;93020.88;4913984;29;20072;-90
2023/04/20 10:40:37;;;;;;;127.70;57.08;;;;;;;15.38;48.89;93018.09;4915549;29;20131;-90
2023/04/20 10:43:02;;;;;;;118.93;39.83;;;;;;;15.41;49.37;93017.84;4913287;29;20040;-92
2023/04/20 10:45:40;;;;;;;95.55;38.60;;;;;;;15.46;49.31;93012.88;4930516;28;20046;-92
2023/04/20 10:48:10;;;;;;;106.03;39.58;;;;;;;15.46;49.40;93015.59;4899609;29;20043;-90
2023/04/20 10:50:35;;;;;;;98.93;39.25;;;;;;;15.46;49.07;93002.00;4932724;28;20071;-90
2023/04/20 10:53:01;;;;;;;94.45;40.50;;;;;;;15.60;49.32;93012.59;4914791;29;20447;-90
2023/04/20 10:55:27;;;;;;;78.00;35.97;;;;;;;15.46;48.57;93007.44;4927894;29;20050;-90
2023/04/20 10:57:52;;;;;;;91.03;37.50;;;;;;;15.44;48.80;93003.22;4903524;28;20047;-90
2023/04/20 11:00:25;;;;;;;91.85;38.75;;;;;;;15.51;49.07;93004.69;4915220;29;20043;-90
2023/04/20 11:02:51;;;;;;;151.70;75.57;;;;;;;15.52;48.81;93000.00;4921706;28;20524;-88
2023/04/20 11:05:19;;;;;;;115.53;60.50;;;;;;;15.47;48.79;92996.03;4921342;28;20054;-90
2023/04/20 11:07:51;;;;;;;110.63;48.25;;;;;;;15.58;48.78;93003.47;4920869;28;20241;-90
2023/04/20 11:10:17;;;;;;;144.88;61.50;;;;;;;15.59;49.00;92992.03;4939568;28;20051;-89